Time;durP1;ratioP1;P1;durP2;ratioP2;P2;SDS_P1;SDS_P2;PMS_P1;PMS_P2;Temp;Humidity;BMP_temperature;BMP_pressure;BME280_temperature;BME280_humidity;BME280_pressure;Samples;Min_cycle;Max_cycle;Signal;HPM_P1;HPM_P2
2024/02/02 00:00:49;;;;;;;1.10;0.68;;;6.30;1.00;;;;;;5134553;27;20414;-56
2024/02/02 00:03:16;;;;;;;1.30;0.65;;;6.20;1.00;;;;;;5134307;27;20411;-56
2024/02/02 00:05:43;;;;;;;2.60;0.70;;;6.20;1.00;;;;;;5119485;27;20424;-54
2024/02/02 00:08:10;;;;;;;1.60;0.60;;;6.30;1.00;;;;;;5116842;27;20440;-56
2024/02/02 00:10:38;;;;;;;1.33;0.50;;;6.40;1.00;;;;;;5115218;27;21105;-52
2024/02/02 00:13:06;;;;;;;1.10;0.52;;;6.40;1.00;;;;;;5128908;27;20430;-53
2024/02/02 00:15:34;;;;;;;1.48;0.50;;;6.40;99.90;;;;;;5131077;27;20487;-56
2024/02/02 00:18:03;;;;;;;0.85;0.50;;;6.30;1.00;;;;;;5116540;27;20420;-57
2024/02/02 00:20:30;;;;;;;1.13;0.50;;;6.60;1.00;;;;;;5129665;27;20430;-52
2024/02/02 00:22:57;;;;;;;1.10;0.50;;;6.70;1.00;;;;;;5128952;27;20432;-55
2024/02/02 00:25:24;;;;;;;1.40;0.60;;;6.70;1.00;;;;;;5121920;27;20426;-56
2024/02/02 00:27:51;;;;;;;1.40;0.50;;;6.70;99.90;;;;;;5121672;27;20451;-56
2024/02/02 00:30:20;;;;;;;1.92;0.50;;;6.70;1.00;;;;;;5107590;27;20428;-54
2024/02/02 00:32:47;;;;;;;2.53;0.50;;;6.90;1.00;;;;;;5105957;27;20511;-57
2024/02/02 00:35:14;;;;;;;1.60;0.60;;;6.80;99.90;;;;;;5111730;27;20946;-57
2024/02/02 00:37:42;;;;;;;1.00;0.40;;;6.80;1.00;;;;;;5112482;28;20443;-56
2024/02/02 00:40:09;;;;;;;2.60;0.50;;;6.80;99.90;;;;;;5131419;27;20419;-55
2024/02/02 00:42:37;;;;;;;0.90;0.40;;;6.60;99.90;;;;;;5133661;27;20692;-56
2024/02/02 00:45:05;;;;;;;1.10;0.50;;;6.60;1.00;;;;;;5125943;27;20408;-56
2024/02/02 00:47:33;;;;;;;1.90;0.40;;;6.50;99.90;;;;;;5114449;28;20416;-54
2024/02/02 00:50:00;;;;;;;1.48;0.50;;;6.50;99.90;;;;;;5112382;28;20431;-54
2024/02/02 00:52:27;;;;;;;0.90;0.50;;;6.30;1.00;;;;;;5113883;27;20412;-56
2024/02/02 00:54:54;;;;;;;1.60;0.50;;;6.30;99.90;;;;;;5113829;28;20432;-56
2024/02/02 00:57:21;;;;;;;1.57;0.50;;;6.20;99.90;;;;;;5112326;28;20443;-55
2024/02/02 00:59:50;;;;;;;1.55;0.40;;;6.20;99.90;;;;;;5113162;28;20420;-56
2024/02/02 01:02:17;;;;;;;2.45;0.40;;;6.30;1.00;;;;;;5111315;28;20420;-56
2024/02/02 01:04:46;;;;;;;2.45;0.50;;;6.60;1.00;;;;;;5113569;28;20546;-55
2024/02/02 01:07:16;;;;;;;1.23;0.40;;;6.80;1.00;;;;;;5111527;27;20721;-55
2024/02/02 01:09:43;;;;;;;0.60;0.30;;;7.00;1.00;;;;;;5115057;27;20773;-54
2024/02/02 01:12:11;;;;;;;1.20;0.40;;;6.80;1.00;;;;;;5112005;28;20446;-56
2024/02/02 01:14:39;;;;;;;0.60;0.40;;;6.60;1.00;;;;;;5114130;27;20432;-55
2024/02/02 01:17:06;;;;;;;1.70;0.40;;;6.40;99.90;;;;;;5115160;27;20446;-56
2024/02/02 01:19:34;;;;;;;2.45;0.50;;;6.00;1.00;;;;;;5113683;27;20719;-56
2024/02/02 01:22:02;;;;;;;0.75;0.40;;;5.90;99.90;;;;;;5116338;27;20426;-57
2024/02/02 01:24:29;;;;;;;1.00;0.40;;;6.00;1.00;;;;;;5112399;28;20423;-57
2024/02/02 01:26:56;;;;;;;1.40;0.50;;;6.10;1.00;;;;;;5113435;27;20836;-57
2024/02/02 01:29:25;;;;;;;0.90;0.40;;;6.10;1.00;;;;;;5113323;28;20419;-57
2024/02/02 01:31:52;;;;;;;1.42;0.50;;;6.20;99.90;;;;;;5114345;27;20432;-54
2024/02/02 01:34:19;;;;;;;1.30;0.40;;;6.20;29.90;;;;;;5115289;27;20443;-50
2024/02/02 01:36:46;;;;;;;1.30;0.40;;;6.30;1.00;;;;;;5114495;27;20420;-55
2024/02/02 01:39:16;;;;;;;1.15;0.40;;;6.30;1.00;;;;;;5113426;27;20428;-55
2024/02/02 01:41:44;;;;;;;1.30;0.50;;;6.20;3.50;;;;;;5112029;28;20909;-56
2024/02/02 01:44:11;;;;;;;0.80;0.30;;;6.30;99.90;;;;;;5110158;28;20424;-53
2024/02/02 01:46:38;;;;;;;0.90;0.40;;;6.30;99.90;;;;;;5116086;27;20427;-56
2024/02/02 01:49:05;;;;;;;2.05;0.40;;;6.50;1.00;;;;;;5112666;27;20443;-55
2024/02/02 01:51:32;;;;;;;1.10;0.50;;;6.60;1.00;;;;;;5110180;28;20432;-55
2024/02/02 01:53:59;;;;;;;1.10;0.40;;;6.50;1.00;;;;;;5109597;28;20432;-56
2024/02/02 01:56:28;;;;;;;1.40;0.40;;;6.40;99.90;;;;;;5111264;27;20412;-56
2024/02/02 01:58:55;;;;;;;1.35;0.50;;;6.60;1.00;;;;;;5112292;28;20439;-57
2024/02/02 02:01:22;;;;;;;1.40;0.50;;;6.70;99.90;;;;;;5116193;27;20525;-55
2024/02/02 02:03:49;;;;;;;1.50;0.50;;;6.60;1.00;;;;;;5115607;27;20422;-54
2024/02/02 02:06:16;;;;;;;1.88;0.40;;;6.60;99.90;;;;;;5111947;27;20439;-55
2024/02/02 02:08:44;;;;;;;2.90;0.50;;;6.60;99.90;;;;;;5112758;28;20718;-56
2024/02/02 02:11:11;;;;;;;2.20;0.40;;;6.90;99.90;;;;;;5108679;28;20420;-55
2024/02/02 02:13:39;;;;;;;0.95;0.40;;;6.90;1.00;;;;;;5111721;27;20438;-55
2024/02/02 02:16:08;;;;;;;1.40;0.40;;;6.80;11.40;;;;;;5111931;27;20432;-56
2024/02/02 02:18:35;;;;;;;1.60;0.50;;;6.60;1.00;;;;;;5111198;28;20424;-56
2024/02/02 02:21:23;;;;;;;2.17;0.50;;;6.40;1.00;;;;;;5110055;27;20411;-56
2024/02/02 02:23:50;;;;;;;0.90;0.50;;;6.30;1.00;;;;;;5110970;28;20407;-56
2024/02/02 02:26:18;;;;;;;0.70;0.30;;;6.30;1.00;;;;;;5111816;28;20951;-58
2024/02/02 02:28:45;;;;;;;2.00;0.40;;;6.20;1.00;;;;;;5111795;28;20420;-52
2024/02/02 02:31:13;;;;;;;1.13;0.40;;;6.30;99.90;;;;;;5111044;27;20451;-56
2024/02/02 02:33:40;;;;;;;1.30;0.40;;;6.60;99.90;;;;;;5113617;27;20440;-56
2024/02/02 02:36:09;;;;;;;0.98;0.40;;;6.70;50.70;;;;;;5111200;28;20908;-55
2024/02/02 02:38:36;;;;;;;1.70;0.40;;;6.80;99.90;;;;;;5110140;27;20958;-54
2024/02/02 02:41:03;;;;;;;2.45;0.50;;;6.90;99.90;;;;;;5110879;28;20416;-54
2024/02/02 02:43:31;;;;;;;0.70;0.30;;;6.90;99.90;;;;;;5111924;27;20424;-55
2024/02/02 02:45:58;;;;;;;0.70;0.50;;;6.90;1.00;;;;;;5114108;27;20428;-54
2024/02/02 02:48:26;;;;;;;1.52;0.40;;;6.70;27.80;;;;;;5111041;28;20435;-56
2024/02/02 02:50:53;;;;;;;2.80;0.50;;;6.40;99.90;;;;;;5109938;28;20690;-56
2024/02/02 02:53:22;;;;;;;1.08;0.40;;;6.30;99.90;;;;;;5111929;28;20420;-55
2024/02/02 02:55:49;;;;;;;1.40;0.50;;;6.20;99.90;;;;;;5112303;28;20975;-52
2024/02/02 02:58:16;;;;;;;2.25;0.40;;;6.30;99.90;;;;;;5110897;28;20420;-52
2024/02/02 03:00:43;;;;;;;1.10;0.40;;;6.50;99.90;;;;;;5113793;28;20427;-56
2024/02/02 03:03:10;;;;;;;1.33;0.50;;;6.70;99.90;;;;;;5114091;28;20435;-53
2024/02/02 03:05:37;;;;;;;1.10;0.50;;;6.80;99.90;;;;;;5111791;28;20419;-55
2024/02/02 03:08:06;;;;;;;2.00;0.50;;;6.80;1.00;;;;;;5111019;28;20438;-56
2024/02/02 03:10:34;;;;;;;0.90;0.50;;;6.90;1.00;;;;;;5110145;28;20432;-55
2024/02/02 03:13:02;;;;;;;2.40;0.50;;;6.80;99.90;;;;;;5110547;28;20507;-54
2024/02/02 03:15:31;;;;;;;1.40;0.50;;;6.70;1.00;;;;;;5112960;28;20600;-56
2024/02/02 03:17:58;;;;;;;1.73;0.60;;;6.60;4.20;;;;;;5115250;27;20424;-55
2024/02/02 03:20:27;;;;;;;1.20;0.50;;;6.50;99.90;;;;;;5117065;27;20424;-55
2024/02/02 03:22:54;;;;;;;1.40;0.50;;;6.50;1.00;;;;;;5115730;27;20428;-53
2024/02/02 03:25:21;;;;;;;1.95;0.50;;;6.40;1.00;;;;;;5116188;27;20452;-55
2024/02/02 03:27:50;;;;;;;1.50;0.50;;;6.40;1.00;;;;;;5115759;28;20941;-55
2024/02/02 03:30:17;;;;;;;1.42;0.50;;;6.40;99.90;;;;;;5114282;28;20420;-55
2024/02/02 03:32:45;;;;;;;0.98;0.50;;;6.50;1.00;;;;;;5114392;28;20489;-55
2024/02/02 03:35:12;;;;;;;1.73;0.50;;;6.60;99.90;;;;;;5114081;28;20428;-52
2024/02/02 03:37:39;;;;;;;1.60;0.50;;;6.50;1.00;;;;;;5114768;27;20457;-54
2024/02/02 03:40:07;;;;;;;4.47;0.40;;;6.20;1.00;;;;;;5114881;27;20427;-55
2024/02/02 03:42:36;;;;;;;1.70;0.40;;;6.10;99.90;;;;;;5114256;27;20468;-55
2024/02/02 03:45:06;;;;;;;1.40;0.50;;;6.10;99.90;;;;;;5114753;27;20412;-54
2024/02/02 03:47:33;;;;;;;1.50;0.50;;;6.10;99.90;;;;;;5113506;27;20420;-52
2024/02/02 03:50:00;;;;;;;2.00;0.40;;;6.20;1.00;;;;;;5118195;27;20435;-56
2024/02/02 03:52:27;;;;;;;1.30;0.55;;;6.30;1.00;;;;;;5115207;28;20442;-55
2024/02/02 03:54:54;;;;;;;0.80;0.50;;;6.50;1.00;;;;;;5112282;28;20432;-54
2024/02/02 03:57:21;;;;;;;2.00;0.50;;;6.50;99.90;;;;;;5119084;27;20514;-52
2024/02/02 03:59:49;;;;;;;1.60;0.50;;;6.20;99.90;;;;;;5115418;27;20424;-56
2024/02/02 04:02:17;;;;;;;2.60;0.60;;;6.20;1.00;;;;;;5115694;27;20420;-53
2024/02/02 04:04:45;;;;;;;1.17;0.60;;;6.10;99.90;;;;;;5114672;28;20444;-54
2024/02/02 04:07:12;;;;;;;2.50;0.60;;;6.20;1.00;;;;;;5112312;28;20428;-53
2024/02/02 04:09:39;;;;;;;0.90;0.50;;;6.30;1.00;;;;;;5114289;28;20437;-52
2024/02/02 04:12:07;;;;;;;2.20;0.60;;;6.30;1.00;;;;;;5114666;27;20447;-53
2024/02/02 04:14:34;;;;;;;1.63;0.50;;;6.20;1.00;;;;;;5114409;27;20830;-53
2024/02/02 04:17:02;;;;;;;2.20;0.60;;;6.10;1.00;;;;;;5115447;27;20483;-55
2024/02/02 04:19:30;;;;;;;0.90;0.50;;;6.00;1.00;;;;;;5114264;28;20436;-55
2024/02/02 04:21:57;;;;;;;1.63;0.70;;;6.10;1.00;;;;;;5113178;28;20460;-57
2024/02/02 04:24:24;;;;;;;1.10;0.60;;;6.10;1.00;;;;;;5113679;28;20533;-55
2024/02/02 04:26:51;;;;;;;3.65;0.70;;;6.00;1.00;;;;;;5113606;28;20835;-52
2024/02/02 04:29:18;;;;;;;1.10;0.60;;;5.90;1.00;;;;;;5111952;28;20424;-51
2024/02/02 04:31:45;;;;;;;1.00;0.70;;;6.00;1.00;;;;;;5112964;27;20437;-53
2024/02/02 04:34:13;;;;;;;1.88;0.70;;;6.00;1.00;;;;;;5112067;28;20487;-54
2024/02/02 04:36:42;;;;;;;1.48;0.70;;;6.10;1.00;;;;;;5112064;28;20900;-55
2024/02/02 04:39:09;;;;;;;1.20;0.70;;;6.00;1.00;;;;;;5111926;28;20420;-52
2024/02/02 04:41:37;;;;;;;1.90;0.68;;;5.90;1.00;;;;;;5113659;28;20440;-56
2024/02/02 04:44:04;;;;;;;1.50;0.70;;;5.90;1.00;;;;;;5114368;28;20947;-57
2024/02/02 04:46:31;;;;;;;1.88;0.70;;;5.90;1.00;;;;;;5112554;28;20809;-55
2024/02/02 04:48:58;;;;;;;2.22;0.70;;;6.00;1.00;;;;;;5113638;28;20420;-52
2024/02/02 04:51:25;;;;;;;1.27;0.70;;;6.00;1.00;;;;;;5112474;27;20698;-51
2024/02/02 04:53:54;;;;;;;1.48;0.80;;;6.00;1.00;;;;;;5113021;27;20852;-54
2024/02/02 04:56:21;;;;;;;1.30;0.70;;;6.10;1.00;;;;;;5113196;27;20449;-54
2024/02/02 04:58:51;;;;;;;1.55;0.80;;;6.10;1.00;;;;;;5118124;27;20428;-54
2024/02/02 05:01:18;;;;;;;1.48;0.80;;;6.20;1.00;;;;;;5114439;27;20742;-54
2024/02/02 05:03:46;;;;;;;1.60;0.70;;;6.20;1.00;;;;;;5111785;28;20434;-55
2024/02/02 05:06:16;;;;;;;2.30;0.90;;;6.20;1.00;;;;;;5113068;28;20416;-56
2024/02/02 05:08:43;;;;;;;1.80;0.80;;;6.20;1.00;;;;;;5113067;28;20424;-55
2024/02/02 05:11:11;;;;;;;1.75;0.80;;;6.20;1.00;;;;;;5116244;27;20546;-55
2024/02/02 05:13:39;;;;;;;2.10;0.80;;;6.20;1.00;;;;;;5113567;28;20425;-52
2024/02/02 05:16:07;;;;;;;1.70;0.70;;;6.20;1.00;;;;;;5112376;27;20435;-53
2024/02/02 05:18:34;;;;;;;1.58;0.70;;;6.30;1.00;;;;;;5112932;27;20789;-55
2024/02/02 05:21:01;;;;;;;1.73;0.80;;;6.30;1.00;;;;;;5112397;28;20789;-54
2024/02/02 05:23:28;;;;;;;1.70;0.90;;;6.30;1.00;;;;;;5111701;28;20910;-53
2024/02/02 05:25:55;;;;;;;1.30;1.00;;;6.30;1.00;;;;;;5112603;27;20430;-56
2024/02/02 05:28:23;;;;;;;3.00;0.90;;;6.20;1.00;;;;;;5114212;27;20426;-56
2024/02/02 05:30:51;;;;;;;1.90;0.90;;;6.10;1.00;;;;;;5114137;27;20439;-56
2024/02/02 05:33:18;;;;;;;3.28;0.80;;;6.10;1.00;;;;;;5114017;27;20424;-56
2024/02/02 05:35:45;;;;;;;1.52;0.80;;;6.10;1.00;;;;;;5113135;27;20931;-53
2024/02/02 05:38:12;;;;;;;2.28;0.90;;;6.10;1.00;;;;;;5113686;27;20911;-56
2024/02/02 05:40:39;;;;;;;2.10;0.80;;;6.10;1.00;;;;;;5112620;28;20800;-52
2024/02/02 05:43:08;;;;;;;1.80;0.80;;;6.10;1.00;;;;;;5114481;27;20725;-56
2024/02/02 05:45:36;;;;;;;1.70;0.80;;;6.10;1.00;;;;;;5110068;27;20858;-56
2024/02/02 05:48:03;;;;;;;2.00;0.73;;;6.20;1.00;;;;;;5111158;27;20424;-55
2024/02/02 05:50:31;;;;;;;2.25;0.80;;;6.30;1.00;;;;;;5110709;28;20706;-53
2024/02/02 05:52:58;;;;;;;1.58;0.70;;;6.30;1.00;;;;;;5114968;27;20486;-54
2024/02/02 05:55:25;;;;;;;2.30;0.80;;;6.30;1.00;;;;;;5110631;28;20435;-54
2024/02/02 05:57:52;;;;;;;2.33;0.80;;;6.30;1.00;;;;;;5125321;27;20981;-53
2024/02/02 06:00:19;;;;;;;1.20;0.70;;;6.40;1.00;;;;;;5115711;27;20439;-55
2024/02/02 06:02:48;;;;;;;1.30;0.80;;;6.40;1.00;;;;;;5125931;27;21091;-55
2024/02/02 06:05:15;;;;;;;1.60;0.80;;;6.50;1.00;;;;;;5113780;27;20751;-55
2024/02/02 06:07:42;;;;;;;1.40;0.80;;;6.50;1.00;;;;;;5111859;28;20416;-54
2024/02/02 06:10:10;;;;;;;3.95;0.90;;;6.50;1.00;;;;;;5117830;27;20426;-53
2024/02/02 06:12:37;;;;;;;1.60;0.80;;;6.50;1.00;;;;;;5117170;27;20420;-55
2024/02/02 06:15:05;;;;;;;1.48;0.80;;;6.40;1.00;;;;;;5119724;27;20424;-53
2024/02/02 06:17:32;;;;;;;1.20;0.80;;;6.40;1.00;;;;;;5120825;27;20420;-55
2024/02/02 06:20:01;;;;;;;2.40;0.90;;;6.60;1.00;;;;;;5119085;27;20411;-56
2024/02/02 06:22:28;;;;;;;1.65;0.80;;;6.80;1.00;;;;;;5110772;27;20773;-53
2024/02/02 06:24:55;;;;;;;1.30;0.80;;;6.80;1.00;;;;;;5115892;27;20446;-56
2024/02/02 06:27:22;;;;;;;1.50;0.73;;;6.80;1.00;;;;;;5113237;27;20710;-55
2024/02/02 06:29:50;;;;;;;2.40;0.80;;;6.70;1.00;;;;;;5119634;27;20484;-54
2024/02/02 06:32:21;;;;;;;2.33;0.80;;;6.70;1.00;;;;;;5109690;28;20424;-54
2024/02/02 06:34:51;;;;;;;1.63;0.70;;;6.60;1.00;;;;;;5111195;27;20433;-55
2024/02/02 06:37:19;;;;;;;1.65;0.90;;;6.60;1.00;;;;;;5118850;27;20428;-55
2024/02/02 06:39:48;;;;;;;1.80;0.90;;;6.60;1.00;;;;;;5112532;27;20830;-55
2024/02/02 06:42:15;;;;;;;1.70;0.80;;;6.50;1.00;;;;;;5107874;27;20429;-54
2024/02/02 06:44:42;;;;;;;1.73;0.80;;;6.60;1.00;;;;;;5097577;28;20428;-55
2024/02/02 06:47:09;;;;;;;2.30;0.90;;;6.60;1.00;;;;;;5096565;28;20737;-54
2024/02/02 06:49:36;;;;;;;2.00;1.00;;;6.70;1.00;;;;;;5093879;28;20875;-55
2024/02/02 06:52:03;;;;;;;2.20;0.90;;;6.70;1.00;;;;;;5101474;28;20431;-52
2024/02/02 06:54:32;;;;;;;2.00;0.90;;;6.80;3.00;;;;;;5098602;28;20992;-53
2024/02/02 06:56:59;;;;;;;1.40;1.00;;;6.90;1.00;;;;;;5098495;28;20424;-52
2024/02/02 06:59:26;;;;;;;1.35;0.80;;;6.90;1.00;;;;;;5099067;28;20764;-59
2024/02/02 07:01:54;;;;;;;2.42;0.90;;;7.00;1.00;;;;;;5098376;28;20418;-51
2024/02/02 07:04:21;;;;;;;1.70;0.70;;;7.20;1.00;;;;;;5096265;28;20710;-55
2024/02/02 07:06:49;;;;;;;1.55;0.80;;;7.40;1.00;;;;;;5096573;28;21010;-55
2024/02/02 07:09:29;;;;;;;2.03;1.00;;;7.60;1.00;;;;;;5095768;28;20422;-54
2024/02/02 07:12:00;;;;;;;2.05;0.98;;;7.70;1.00;;;;;;5085646;28;20707;-55
2024/02/02 07:14:47;;;;;;;1.80;0.90;;;7.50;1.00;;;;;;5091481;28;20424;-55
2024/02/02 07:17:23;;;;;;;3.00;0.97;;;7.30;1.00;;;;;;5093225;28;20420;-54
2024/02/02 07:19:50;;;;;;;2.10;0.90;;;7.30;1.00;;;;;;5096949;28;20472;-55
2024/02/02 07:22:33;;;;;;;1.90;1.10;;;7.20;1.00;;;;;;5093273;28;20442;-59
2024/02/02 07:25:00;;;;;;;1.70;1.00;;;7.00;1.00;;;;;;5098391;28;20474;-58
2024/02/02 07:27:48;;;;;;;1.70;0.90;;;6.90;1.00;;;;;;5087345;28;20652;-58
2024/02/02 07:30:47;;;;;;;1.70;0.90;;;6.90;1.00;;;;;;5084636;28;20697;-59
2024/02/02 07:33:24;;;;;;;1.50;0.80;;;7.00;4.60;;;;;;5086938;28;20432;-58
2024/02/02 07:35:51;;;;;;;2.03;1.00;;;7.30;7.70;;;;;;5087669;28;20819;-58
2024/02/02 07:38:51;;;;;;;2.40;1.00;;;7.50;1.00;;;;;;5087484;28;20414;-59
2024/02/02 07:41:22;;;;;;;2.22;1.00;;;7.40;1.00;;;;;;5086792;28;20836;-59
2024/02/02 07:43:51;;;;;;;2.20;1.00;;;7.20;1.00;;;;;;5106556;28;20519;-59
2024/02/02 07:46:18;;;;;;;1.83;0.93;;;7.10;1.00;;;;;;5106757;28;20424;-59
2024/02/02 07:48:46;;;;;;;1.90;1.05;;;7.00;1.00;;;;;;5107266;28;20455;-59
2024/02/02 07:51:15;;;;;;;2.13;1.10;;;6.90;1.00;;;;;;5107300;28;20424;-59
2024/02/02 07:53:43;;;;;;;2.77;1.00;;;6.90;7.30;;;;;;5106507;28;20481;-59
2024/02/02 07:56:10;;;;;;;2.00;1.30;;;6.90;12.30;;;;;;5105759;28;20432;-59
2024/02/02 07:58:39;;;;;;;2.05;1.10;;;7.00;19.50;;;;;;5106629;28;20416;-59
2024/02/02 08:01:07;;;;;;;2.20;1.20;;;7.00;9.90;;;;;;5104878;28;20501;-59
2024/02/02 08:03:35;;;;;;;1.98;1.00;;;7.10;1.00;;;;;;5101354;28;20442;-59
2024/02/02 08:06:02;;;;;;;2.00;1.10;;;7.10;1.00;;;;;;5111092;28;20802;-58
2024/02/02 08:08:31;;;;;;;2.30;1.07;;;7.20;1.00;;;;;;5111170;28;20412;-57
2024/02/02 08:10:59;;;;;;;1.70;1.00;;;7.30;1.00;;;;;;5111002;28;20420;-57
2024/02/02 08:13:26;;;;;;;4.03;1.00;;;7.40;1.00;;;;;;5110295;28;20434;-57
2024/02/02 08:15:53;;;;;;;2.10;0.90;;;7.40;1.00;;;;;;5099248;28;20549;-58
2024/02/02 08:18:22;;;;;;;4.20;1.05;;;7.40;1.00;;;;;;5115799;27;20423;-58
2024/02/02 08:20:49;;;;;;;1.80;1.00;;;7.40;1.00;;;;;;5111272;28;20456;-58
2024/02/02 08:23:16;;;;;;;2.50;1.00;;;7.30;1.00;;;;;;5109375;28;20771;-57
2024/02/02 08:25:43;;;;;;;2.10;1.00;;;7.30;1.00;;;;;;5110216;28;20419;-58
2024/02/02 08:28:10;;;;;;;2.40;1.00;;;7.30;1.00;;;;;;5111206;28;20420;-58
2024/02/02 08:30:37;;;;;;;2.20;0.90;;;7.30;1.00;;;;;;5111965;27;20802;-58
2024/02/02 08:33:04;;;;;;;2.13;1.10;;;7.30;1.00;;;;;;5111052;27;20435;-58
2024/02/02 08:35:33;;;;;;;2.78;1.20;;;7.30;1.00;;;;;;5110871;27;20538;-55
2024/02/02 08:38:02;;;;;;;2.20;0.90;;;7.30;1.00;;;;;;5110749;28;20649;-58
2024/02/02 08:40:38;;;;;;;4.82;2.55;;;7.30;1.00;;;;;;5111178;28;20484;-58
2024/02/02 08:43:09;;;;;;;1.55;0.90;;;7.40;1.00;;;;;;5112004;28;20443;-58
2024/02/02 08:46:12;;;;;;;2.30;1.00;;;7.50;1.00;;;;;;5111676;28;20416;-58
2024/02/02 08:48:45;;;;;;;1.90;0.90;;;7.60;1.00;;;;;;5111581;28;20427;-57
2024/02/02 08:51:45;;;;;;;3.90;0.90;;;7.70;1.00;;;;;;5115890;27;20426;-58
2024/02/02 08:54:36;;;;;;;1.60;1.00;;;7.80;1.00;;;;;;5094761;27;20890;-58
2024/02/02 08:57:41;;;;;;;3.10;1.00;;;7.80;1.00;;;;;;5095545;28;20422;-56
2024/02/02 09:00:17;;;;;;;1.92;1.20;;;7.90;1.00;;;;;;5105673;27;20440;-57
2024/02/02 09:03:08;;;;;;;1.63;0.90;;;8.10;1.00;;;;;;5105959;28;20840;-56
2024/02/02 09:05:50;;;;;;;1.30;0.80;;;8.20;1.00;;;;;;5104372;28;20441;-56
2024/02/02 09:08:30;;;;;;;2.00;1.10;;;8.30;1.00;;;;;;5106948;28;20622;-57
2024/02/02 09:11:19;;;;;;;1.40;0.80;;;8.30;1.00;;;;;;5101063;28;20742;-55
2024/02/02 09:13:47;;;;;;;2.03;0.90;;;8.30;1.00;;;;;;5108789;28;20439;-56
2024/02/02 09:16:15;;;;;;;1.80;0.90;;;8.40;1.00;;;;;;5110191;28;20804;-58
2024/02/02 09:18:44;;;;;;;1.77;0.82;;;8.30;1.00;;;;;;5105692;28;20443;-57
2024/02/02 09:21:17;;;;;;;1.80;0.80;;;8.40;1.00;;;;;;5101752;28;20467;-57
2024/02/02 09:23:52;;;;;;;1.90;1.00;;;8.70;1.00;;;;;;5118294;27;20849;-58
2024/02/02 09:26:30;;;;;;;3.30;1.30;;;8.70;1.00;;;;;;5110509;28;20443;-58
2024/02/02 09:29:00;;;;;;;2.47;1.00;;;8.70;1.00;;;;;;5108729;28;20807;-57
2024/02/02 09:31:32;;;;;;;1.80;0.90;;;8.60;1.00;;;;;;5102890;28;20646;-56
2024/02/02 09:34:06;;;;;;;1.90;0.82;;;8.60;1.00;;;;;;5104210;28;20541;-58
2024/02/02 09:36:34;;;;;;;1.55;0.90;;;8.60;1.00;;;;;;5110455;28;20526;-59
2024/02/02 09:39:09;;;;;;;1.55;0.80;;;8.70;1.00;;;;;;5110719;28;20852;-59
2024/02/02 09:42:21;;;;;;;1.20;0.80;;;8.70;1.00;;;;;;5110397;28;20838;-60
2024/02/02 09:44:51;;;;;;;1.52;0.80;;;9.00;1.00;;;;;;5095850;28;20428;-57
2024/02/02 09:47:50;;;;;;;1.70;0.80;;;9.10;1.00;;;;;;5098351;28;20806;-58
2024/02/02 09:50:30;;;;;;;1.92;0.80;;;9.10;1.00;;;;;;5110824;28;20748;-58
2024/02/02 09:53:29;;;;;;;1.35;0.80;;;9.20;1.00;;;;;;5100315;28;20420;-57
2024/02/02 09:56:06;;;;;;;1.63;0.90;;;9.10;1.00;;;;;;5107702;28;20439;-56
2024/02/02 09:58:42;;;;;;;1.40;0.77;;;9.00;1.00;;;;;;5110034;28;20420;-57
2024/02/02 10:01:22;;;;;;;1.60;0.82;;;8.90;1.00;;;;;;5105243;27;20726;-58
2024/02/02 10:04:00;;;;;;;1.65;0.70;;;8.90;1.00;;;;;;5108343;28;20822;-56
2024/02/02 10:06:35;;;;;;;3.38;0.90;;;8.90;1.00;;;;;;5109433;28;20928;-57
2024/02/02 10:09:16;;;;;;;1.17;0.70;;;9.10;1.00;;;;;;5110344;28;20647;-58
2024/02/02 10:12:05;;;;;;;1.42;0.80;;;8.90;1.00;;;;;;5111282;28;20794;-57
2024/02/02 10:15:07;;;;;;;1.60;0.73;;;8.90;1.00;;;;;;5106239;28;20432;-57
2024/02/02 10:17:54;;;;;;;2.00;0.90;;;9.10;1.00;;;;;;5100987;28;20579;-57
2024/02/02 10:20:32;;;;;;;1.30;0.70;;;9.20;1.00;;;;;;5108657;28;20420;-55
2024/02/02 10:23:24;;;;;;;1.20;0.70;;;9.30;1.00;;;;;;5108279;28;20518;-57
2024/02/02 10:26:09;;;;;;;2.22;0.80;;;9.50;1.00;;;;;;5098427;27;20437;-57
2024/02/02 10:28:49;;;;;;;1.30;0.70;;;9.50;99.90;;;;;;5090755;28;20518;-58
2024/02/02 10:31:33;;;;;;;1.88;0.80;;;9.30;99.90;;;;;;5106192;27;20504;-57
2024/02/02 10:34:16;;;;;;;1.17;0.70;;;9.20;99.90;;;;;;5109250;27;20443;-58
2024/02/02 10:36:57;;;;;;;2.05;0.80;;;9.30;1.00;;;;;;5103666;28;20528;-56
2024/02/02 10:39:36;;;;;;;2.10;0.60;;;9.50;1.00;;;;;;5101420;27;20440;-58
2024/02/02 10:42:15;;;;;;;1.30;0.55;;;9.60;1.00;;;;;;5089606;28;20916;-57
2024/02/02 10:44:54;;;;;;;1.40;0.70;;;9.50;1.00;;;;;;5089728;28;20424;-58
2024/02/02 10:47:38;;;;;;;1.35;0.70;;;9.40;1.00;;;;;;5097103;28;20424;-59
2024/02/02 10:50:19;;;;;;;1.20;0.60;;;9.30;1.00;;;;;;5104727;28;20439;-60
2024/02/02 10:52:58;;;;;;;2.60;0.90;;;9.40;1.00;;;;;;5107350;28;20439;-60
2024/02/02 10:55:40;;;;;;;1.20;0.50;;;9.40;1.00;;;;;;5107003;28;20824;-59
2024/02/02 10:58:21;;;;;;;1.20;0.50;;;9.40;99.90;;;;;;5107043;28;20438;-58
2024/02/02 11:01:00;;;;;;;0.80;0.50;;;9.30;1.00;;;;;;5107681;28;20412;-59
2024/02/02 11:03:35;;;;;;;0.90;0.50;;;9.30;99.90;;;;;;5097775;28;20420;-57
2024/02/02 11:06:21;;;;;;;0.80;0.50;;;9.70;99.90;;;;;;5106491;28;20521;-59
2024/02/02 11:08:55;;;;;;;0.63;0.40;;;9.60;99.90;;;;;;5098846;28;20429;-59
2024/02/02 11:11:26;;;;;;;0.85;0.40;;;9.90;99.90;;;;;;5106887;28;20745;-59
2024/02/02 11:14:00;;;;;;;0.85;0.50;;;10.00;99.90;;;;;;5107349;28;20930;-59
2024/02/02 11:16:45;;;;;;;0.60;0.40;;;10.00;99.90;;;;;;5108739;28;20455;-58
2024/02/02 11:19:20;;;;;;;1.10;0.50;;;10.10;99.90;;;;;;5096830;28;20416;-58
2024/02/02 11:22:16;;;;;;;0.90;0.50;;;10.20;99.90;;;;;;5108914;28;20412;-57
2024/02/02 11:24:55;;;;;;;1.00;0.50;;;10.20;99.90;;;;;;5109549;28;20493;-58
2024/02/02 11:27:28;;;;;;;1.10;0.50;;;10.20;99.90;;;;;;5108701;28;20408;-58
2024/02/02 11:30:03;;;;;;;0.93;0.45;;;10.20;99.90;;;;;;5122869;28;20419;-58
2024/02/02 11:33:03;;;;;;;0.70;0.40;;;10.30;99.90;;;;;;5109545;28;20769;-58
2024/02/02 11:35:38;;;;;;;1.05;0.50;;;10.30;99.90;;;;;;5108933;28;20412;-58
2024/02/02 11:38:18;;;;;;;1.10;0.50;;;10.50;99.90;;;;;;5112281;28;20489;-59
2024/02/02 11:40:45;;;;;;;0.70;0.40;;;10.50;99.90;;;;;;5097115;28;20419;-59
2024/02/02 11:43:13;;;;;;;10.10;7.22;;;10.50;99.90;;;;;;5112906;27;20965;-59
2024/02/02 11:45:43;;;;;;;1.10;0.60;;;10.50;99.90;;;;;;5112987;28;20457;-59
2024/02/02 11:48:17;;;;;;;2.30;0.80;;;10.50;99.90;;;;;;5112563;28;20773;-59
2024/02/02 11:50:45;;;;;;;0.70;0.40;;;10.90;99.90;;;;;;5113054;28;20416;-58
2024/02/02 11:53:20;;;;;;;0.60;0.30;;;11.30;99.90;;;;;;5113831;28;20412;-59
2024/02/02 11:55:52;;;;;;;0.60;0.30;;;11.30;99.90;;;;;;5110469;28;20427;-59
2024/02/02 11:58:21;;;;;;;0.50;0.30;;;11.30;99.90;;;;;;5112104;28;20723;-58
2024/02/02 12:01:12;;;;;;;0.70;0.32;;;11.40;99.90;;;;;;5117701;27;20802;-58
2024/02/02 12:03:53;;;;;;;0.65;0.30;;;11.50;99.90;;;;;;5111065;28;20445;-58
2024/02/02 12:06:21;;;;;;;0.90;0.30;;;11.40;99.90;;;;;;5109393;28;20416;-59
2024/02/02 12:08:57;;;;;;;0.60;0.30;;;11.30;99.90;;;;;;5096032;28;20416;-59
2024/02/02 12:11:31;;;;;;;0.60;0.30;;;11.30;99.90;;;;;;5107940;28;20820;-59
2024/02/02 12:14:01;;;;;;;0.60;0.30;;;11.30;99.90;;;;;;5104194;28;20430;-58
2024/02/02 12:16:28;;;;;;;0.90;0.30;;;11.40;99.90;;;;;;5105857;27;20425;-58
2024/02/02 12:18:56;;;;;;;0.60;0.40;;;11.40;99.90;;;;;;5096618;28;20571;-59
2024/02/02 12:21:24;;;;;;;0.70;0.35;;;11.50;99.90;;;;;;5097281;28;20454;-58
2024/02/02 12:23:51;;;;;;;1.60;0.50;;;11.60;99.90;;;;;;5107205;28;20415;-58
2024/02/02 12:26:20;;;;;;;1.10;0.30;;;11.70;99.90;;;;;;5105760;28;20478;-58
2024/02/02 12:28:47;;;;;;;1.00;0.40;;;11.70;99.90;;;;;;5115411;27;20509;-59
2024/02/02 12:31:14;;;;;;;0.70;0.30;;;11.60;99.90;;;;;;5122207;27;20420;-58
2024/02/02 12:33:41;;;;;;;0.50;0.20;;;11.50;99.90;;;;;;5111113;27;20433;-58
2024/02/02 12:36:09;;;;;;;0.50;0.30;;;11.40;99.90;;;;;;5110515;28;20423;-58
2024/02/02 12:38:36;;;;;;;0.95;0.30;;;11.40;99.90;;;;;;5092830;27;20431;-58
2024/02/02 12:41:04;;;;;;;0.50;0.20;;;11.50;99.90;;;;;;5111168;27;20712;-58
2024/02/02 12:43:31;;;;;;;0.52;0.20;;;11.60;99.90;;;;;;5110316;28;20463;-58
2024/02/02 12:45:58;;;;;;;0.50;0.30;;;11.60;99.90;;;;;;5109599;28;20438;-58
2024/02/02 12:48:26;;;;;;;0.43;0.20;;;11.50;99.90;;;;;;5113417;27;20437;-58
2024/02/02 12:50:53;;;;;;;0.47;0.28;;;11.40;99.90;;;;;;5112430;27;20416;-58
2024/02/02 12:53:22;;;;;;;0.40;0.30;;;11.60;99.90;;;;;;5112376;27;20503;-58
2024/02/02 12:55:49;;;;;;;0.40;0.22;;;11.60;99.90;;;;;;5117789;27;20416;-59
2024/02/02 12:58:16;;;;;;;0.57;0.30;;;11.70;99.90;;;;;;5109309;27;20432;-58
2024/02/02 13:00:44;;;;;;;0.70;0.20;;;11.80;99.90;;;;;;5101315;27;20436;-59
2024/02/02 13:03:12;;;;;;;0.70;0.30;;;11.70;99.90;;;;;;5106954;27;20710;-58
2024/02/02 13:05:42;;;;;;;0.60;0.30;;;11.90;99.90;;;;;;5111562;27;20435;-59
2024/02/02 13:08:09;;;;;;;1.00;0.30;;;12.00;99.90;;;;;;5110005;28;20438;-59
2024/02/02 13:10:39;;;;;;;0.70;0.38;;;11.90;99.90;;;;;;5111921;27;20713;-58
2024/02/02 13:13:13;;;;;;;0.50;0.30;;;11.90;99.90;;;;;;5114768;27;20444;-58
2024/02/02 13:15:40;;;;;;;0.70;0.30;;;11.90;99.90;;;;;;5111150;28;20713;-59
2024/02/02 13:18:13;;;;;;;0.80;0.20;;;11.90;99.90;;;;;;5131198;27;20466;-59
2024/02/02 13:20:44;;;;;;;5.65;2.20;;;12.00;99.90;;;;;;5120633;27;20444;-60
2024/02/02 13:23:23;;;;;;;1.10;0.50;;;12.00;99.90;;;;;;5114270;27;20428;-59